Terminal Aerodrome Forecast
Issued by NWS Austin/San Antonio, TX

Home | Current Version | Previous Version | Text Only | Print | Product List | Glossary On
Versions: 1 2 3 4 5 6 7 8 9 10 11 12 13 14 15 16 17 18 19 20 21
000
FTUS44 KEWX 110200 AAA
TAFSAT
TAF AMD
KSAT 110251Z 1103/1206 16015KT P6SM FEW040 BKN100
     FM110400 16009KT P6SM BKN250
     FM111000 18005KT 5SM BR BKN015
     FM111530 17009KT P6SM SCT030
     FM111700 17015KT P6SM SCT040 BKN120=

USA.gov is the U.S. government's official web portal to all federal, state and local government web resources and services.